aviador You're here:

CZUM Decoded Metar

CHURCHILL FALLS in NL, CANADA
Report Time2018-07-23 07:21:00
UTC Time2018-07-23 07:51:06
Flight Rules ifr IFR
Wind220° at 03 kt
W.Decomp.*RWY 31: 1.1 kt HW 2.8 kt LCW
W.Rank220° ranks 22
Current wind is below 220° avg. (5.7)
Visibility9999 m
Phenomena:N/A
Clouds:Broken 006 Hf
Overcast 095 Hf
Expected CloudBase > 400 ft AGL from Temp-Dew spread
Ceiling600 ft
Temp13°C (ISA +1)
Dew Point12°C (94% RH)
AAT12.6°C
QNH1020 hPa
Density Alt1,506 ft
Elevation1,444 ft
Report Wrong Elevation
Raw Report
SPECI CZUM 230721Z AUTO 22003KT 160V240 9SM BKN006 OVC095 13/12 A3013
RMK SLP209=

Extra information for CZUM:More info

Metar Taf Metar & Taf Last 4 Metars F.Rules Stats Wind Profile Meteogram Temp Stats Airport Information Weather charts Add Link Nearby VenuesMetar ALERT Operation Metar Decoded Social comments